ボゴタ の空港の天気 - METARとTAF

エルドラド国際空港(ボコダ) ( SKBO / BOG ) - コロンビア ボゴタ
飛行場実況気象(Metar)
観測時間05/26 16:30 COT (05/26 21:30 UTC)
風向・風速南南東 6m/s
視程8000m
天気現象霧雨
全天の4割程度の雲 雲底高度 520m
全天の8割程度の雲 雲底高度 2130m
気温15℃
湿度82%
気圧1026hPa
METARSKBO 262130Z 16012KT 8000 DZ SCT017 BKN070 15/12 A3029 RERA NOSIG
過去の天気等 Google飛行場航空写真 Wunderground天気予報

過去48時間のMETAR

飛行場予報(TAF)
発表時間: 5/26 11:30 COT (5/26 16:30 UTC)
予報対象時間: 26日13時 COT ~ 27日13時 COT
風向・風速南東 5m/s
視程10km以上
全天の4割程度の雲 雲底高度 610m
全天の8割程度の雲 雲底高度 2740m
26日14時 COT ~ 26日17時 COT に一時的に
天気現象弱い雨霧雨
全天の8割程度の雲 雲底高度 520m
26日20時 COT ~ 26日22時 COT に徐々に
風向・風速北東 3m/s
26日23時 COT ~ 27日2時 COT に一時的に
視程8000m
天気現象霧雨
全天の8割程度の雲 雲底高度 370m
27日10時 COT ~ 27日12時 COT に徐々に
風向・風速南東 6m/s
TAF SKBO 261630Z 2618/2718 13010KT 9999 SCT020 BKN090
TEMPO 2619/2622 -RADZ BKN017
BECMG 2701/2703 05005KT
TEMPO 2704/2707 8000 DZ BKN012
BECMG 2715/2717 14012KT TX20/2618Z TN11/2711Z